createdAt,value
2019-02-25T00:00:28.488Z,102593.23
2019-02-25T00:02:55.923Z,102600.78
2019-02-25T00:05:23.288Z,102603.56
2019-02-25T00:07:50.697Z,102603.20
2019-02-25T00:10:18.048Z,102598.14
2019-02-25T00:12:45.473Z,102595.14
2019-02-25T00:15:12.894Z,102600.28
2019-02-25T00:17:40.342Z,102600.91
2019-02-25T00:20:09.317Z,102608.41
2019-02-25T00:22:36.673Z,102599.60
2019-02-25T00:25:04.388Z,102595.67
2019-02-25T00:27:31.807Z,102591.33
2019-02-25T00:29:59.228Z,102591.81
2019-02-25T00:32:26.868Z,102591.38
2019-02-25T00:34:54.297Z,102588.28
2019-02-25T00:37:21.638Z,102576.32
2019-02-25T00:39:49.043Z,102569.83
2019-02-25T00:42:16.398Z,102575.39
2019-02-25T00:44:43.825Z,102573.06
2019-02-25T00:47:11.158Z,102577.45
2019-02-25T00:49:38.598Z,102573.03
2019-02-25T00:52:05.971Z,102575.55
2019-02-25T00:54:33.363Z,102592.00
2019-02-25T00:57:00.761Z,102586.08
2019-02-25T00:59:29.158Z,102568.69
2019-02-25T01:01:56.543Z,102571.28
2019-02-25T01:04:23.948Z,102576.36
2019-02-25T01:06:51.298Z,102583.87
2019-02-25T01:09:18.721Z,102585.67
2019-02-25T01:11:46.099Z,102580.95
2019-02-25T01:14:13.894Z,102588.23
2019-02-25T01:16:41.264Z,102587.44
2019-02-25T01:19:08.656Z,102581.34
2019-02-25T01:21:36.163Z,102583.05
2019-02-25T01:24:03.578Z,102587.82
2019-02-25T01:26:30.928Z,102587.38
2019-02-25T01:28:58.383Z,102577.77
2019-02-25T01:31:25.773Z,102576.56
2019-02-25T01:33:53.189Z,102569.77
2019-02-25T01:36:20.545Z,102568.97
2019-02-25T01:38:47.973Z,102561.63
2019-02-25T01:41:15.318Z,102565.55
2019-02-25T01:43:43.188Z,102558.66
2019-02-25T01:46:10.550Z,102559.50
2019-02-25T01:48:37.991Z,102553.91
2019-02-25T01:51:05.358Z,102543.01
2019-02-25T01:53:32.748Z,102537.41
2019-02-25T01:56:00.168Z,102534.38
2019-02-25T01:58:27.528Z,102536.47
2019-02-25T02:00:54.958Z,102541.27
2019-02-25T02:03:22.317Z,102537.88
2019-02-25T02:05:50.197Z,102540.98
2019-02-25T02:08:17.638Z,102542.74
2019-02-25T02:10:45.044Z,102542.38
2019-02-25T02:13:14.420Z,102545.00
2019-02-25T02:15:41.758Z,102548.89
2019-02-25T02:18:09.093Z,102544.66
2019-02-25T02:20:36.547Z,102536.84
2019-02-25T02:23:04.182Z,102521.09
2019-02-25T02:25:31.582Z,102527.95
2019-02-25T02:27:59.160Z,102531.52
2019-02-25T02:30:26.562Z,102539.33
2019-02-25T02:32:54.009Z,102529.34
2019-02-25T02:35:21.404Z,102536.30
2019-02-25T02:37:48.745Z,102538.14
2019-02-25T02:40:16.186Z,102546.91
2019-02-25T02:42:46.360Z,102541.77
2019-02-25T02:45:23.272Z,102546.05
2019-02-25T02:47:56.852Z,102546.55
2019-02-25T02:50:25.557Z,102548.69
2019-02-25T02:52:53.042Z,102546.91
2019-02-25T02:55:20.465Z,102546.09
2019-02-25T02:57:47.914Z,102550.41
2019-02-25T03:00:16.600Z,102541.75
2019-02-25T03:02:43.963Z,102552.56
2019-02-25T03:05:12.874Z,102565.25
2019-02-25T03:07:40.263Z,102548.42
2019-02-25T03:10:09.287Z,102537.63
2019-02-25T03:12:36.818Z,102534.95
2019-02-25T03:15:05.983Z,102536.81
2019-02-25T03:17:33.328Z,102532.02
2019-02-25T03:20:00.737Z,102535.00
2019-02-25T03:22:28.081Z,102540.14
2019-02-25T03:24:55.459Z,102545.05
2019-02-25T03:27:22.833Z,102537.71
2019-02-25T03:29:50.280Z,102536.45
2019-02-25T03:32:17.698Z,102542.01
2019-02-25T03:34:45.115Z,102543.70
2019-02-25T03:37:12.456Z,102546.28
2019-02-25T03:39:39.848Z,102555.70
2019-02-25T03:42:07.434Z,102564.83
2019-02-25T03:44:35.112Z,102562.20
2019-02-25T03:47:02.493Z,102572.16
2019-02-25T03:49:29.956Z,102572.16
2019-02-25T03:51:57.383Z,102579.97
2019-02-25T03:54:25.156Z,102579.05
2019-02-25T03:56:52.551Z,102571.20
2019-02-25T03:59:19.921Z,102568.59
2019-02-25T04:01:47.422Z,102561.69
2019-02-25T04:04:14.740Z,102561.23
2019-02-25T04:06:42.144Z,102560.86
2019-02-25T04:09:09.531Z,102564.31
2019-02-25T04:11:36.933Z,102572.55
2019-02-25T04:14:04.571Z,102569.12
2019-02-25T04:16:31.992Z,102569.59
2019-02-25T04:18:59.401Z,102571.78
2019-02-25T04:21:26.827Z,102570.09
2019-02-25T04:23:54.172Z,102567.55
2019-02-25T04:26:21.661Z,102560.23
2019-02-25T04:28:49.059Z,102564.54
2019-02-25T04:31:16.461Z,102559.75
2019-02-25T04:33:43.804Z,102557.50
2019-02-25T04:36:11.219Z,102551.42
2019-02-25T04:38:38.546Z,102549.23
2019-02-25T04:41:05.951Z,102550.56
2019-02-25T04:43:33.345Z,102557.53
2019-02-25T04:46:00.815Z,102566.61
2019-02-25T04:48:28.182Z,102568.33
2019-02-25T04:50:55.578Z,102562.33
2019-02-25T04:53:23.069Z,102556.73
2019-02-25T04:55:50.558Z,102564.50
2019-02-25T04:58:17.894Z,102564.91
2019-02-25T05:00:45.311Z,102563.59
2019-02-25T05:03:12.680Z,102568.77
2019-02-25T05:05:40.125Z,102566.20
2019-02-25T05:08:07.567Z,102570.98
2019-02-25T05:10:34.938Z,102567.97
2019-02-25T05:13:03.818Z,102562.81
2019-02-25T05:15:31.455Z,102570.58
2019-02-25T05:17:58.946Z,102568.45
2019-02-25T05:20:26.358Z,102564.55
2019-02-25T05:22:53.758Z,102568.84
2019-02-25T05:25:21.282Z,102567.55
2019-02-25T05:27:48.734Z,102578.32
2019-02-25T05:30:16.813Z,102582.22
2019-02-25T05:32:44.643Z,102579.67
2019-02-25T05:35:12.387Z,102584.84
2019-02-25T05:37:40.300Z,102586.13
2019-02-25T05:40:10.959Z,102587.44
2019-02-25T05:42:38.478Z,102585.72
2019-02-25T05:45:06.112Z,102588.73
2019-02-25T05:47:33.659Z,102588.28
2019-02-25T05:50:01.324Z,102580.48
2019-02-25T05:52:28.924Z,102586.05
2019-02-25T05:54:56.401Z,102588.66
2019-02-25T05:57:23.920Z,102597.70
2019-02-25T05:59:51.436Z,102593.44
2019-02-25T06:02:18.956Z,102591.27
2019-02-25T06:04:46.480Z,102584.83
2019-02-25T06:07:14.049Z,102580.89
2019-02-25T06:09:41.510Z,102571.39
2019-02-25T06:12:09.058Z,102567.92
2019-02-25T06:14:36.565Z,102562.28
2019-02-25T06:17:04.087Z,102564.00
2019-02-25T06:19:31.556Z,102561.01
2019-02-25T06:21:59.069Z,102560.61
2019-02-25T06:24:26.540Z,102564.52
2019-02-25T06:26:54.183Z,102569.73
2019-02-25T06:29:21.691Z,102569.75
2019-02-25T06:31:49.228Z,102568.88
2019-02-25T06:34:16.991Z,102562.80
2019-02-25T06:36:44.863Z,102564.48
2019-02-25T06:39:12.332Z,102562.28
2019-02-25T06:41:39.873Z,102562.21
2019-02-25T06:44:07.424Z,102559.60
2019-02-25T06:46:34.957Z,102559.45
2019-02-25T06:49:02.440Z,102570.56
2019-02-25T06:51:29.974Z,102562.09
2019-02-25T06:53:57.633Z,102566.02
2019-02-25T06:56:25.104Z,102567.83
2019-02-25T06:58:52.642Z,102560.09
2019-02-25T07:01:20.184Z,102562.23
2019-02-25T07:04:07.282Z,102555.31
2019-02-25T07:06:48.971Z,102558.19
2019-02-25T07:09:26.560Z,102549.14
2019-02-25T07:12:10.723Z,102560.02
2019-02-25T07:14:47.505Z,102552.14
2019-02-25T07:17:33.142Z,102550.73
2019-02-25T07:20:16.554Z,102546.84
2019-02-25T07:23:21.393Z,102539.05
2019-02-25T07:25:59.323Z,102558.80
2019-02-25T07:28:38.723Z,102547.30
2019-02-25T07:31:37.479Z,102555.53
2019-02-25T07:34:24.458Z,102545.75
2019-02-25T07:37:01.413Z,102546.76
2019-02-25T07:39:44.648Z,102545.50
2019-02-25T07:42:37.648Z,102556.13
2019-02-25T07:45:25.945Z,102556.55
2019-02-25T07:48:07.602Z,102555.77
2019-02-25T07:50:52.873Z,102539.63
2019-02-25T07:53:42.593Z,102535.98
2019-02-25T07:56:29.843Z,102549.19
2019-02-25T07:59:12.311Z,102534.23
2019-02-25T08:02:11.124Z,102528.64
2019-02-25T08:04:58.053Z,102519.08
2019-02-25T08:07:50.778Z,102534.23
2019-02-25T08:10:30.228Z,102534.39
2019-02-25T08:13:20.061Z,102542.45
2019-02-25T08:16:15.643Z,102540.98
2019-02-25T08:19:17.719Z,102529.02
2019-02-25T08:22:23.148Z,102538.99
2019-02-25T08:25:07.636Z,102536.44
2019-02-25T08:27:41.488Z,102553.48
2019-02-25T08:30:18.661Z,102559.76
2019-02-25T08:33:01.854Z,102567.59
2019-02-25T08:36:15.505Z,102556.27
2019-02-25T08:38:58.771Z,102572.27
2019-02-25T08:41:48.738Z,102607.27
2019-02-25T08:44:44.368Z,102614.53
2019-02-25T08:47:31.318Z,102626.77
2019-02-25T08:50:04.448Z,102625.24
2019-02-25T08:52:31.918Z,102626.97
2019-02-25T08:54:59.861Z,102620.61
2019-02-25T08:57:27.365Z,102615.14
2019-02-25T08:59:54.933Z,102614.98
2019-02-25T09:02:22.313Z,102624.84
2019-02-25T09:04:49.963Z,102627.44
2019-02-25T09:07:17.856Z,102618.38
2019-02-25T09:09:45.433Z,102623.03
2019-02-25T09:12:12.874Z,102615.18
2019-02-25T09:14:40.408Z,102608.92
2019-02-25T09:17:07.800Z,102600.22
2019-02-25T09:19:35.353Z,102594.41
2019-02-25T09:22:03.061Z,102601.25
2019-02-25T09:24:30.676Z,102610.16
2019-02-25T09:26:58.219Z,102612.58
2019-02-25T09:29:26.013Z,102593.17
2019-02-25T09:31:53.601Z,102594.98
2019-02-25T09:34:21.158Z,102596.45
2019-02-25T09:36:48.618Z,102605.34
2019-02-25T09:39:16.834Z,102608.55
2019-02-25T09:41:44.580Z,102600.02
2019-02-25T09:44:11.982Z,102597.79
2019-02-25T09:46:39.509Z,102590.91
2019-02-25T09:49:06.953Z,102593.39
2019-02-25T09:51:34.483Z,102586.10
2019-02-25T09:54:01.972Z,102584.45
2019-02-25T09:56:29.509Z,102583.56
2019-02-25T09:58:57.094Z,102570.14
2019-02-25T10:01:24.533Z,102567.08
2019-02-25T10:03:52.069Z,102579.99
2019-02-25T10:06:20.764Z,102580.30
2019-02-25T10:08:48.211Z,102572.15
2019-02-25T10:11:15.695Z,102560.77
2019-02-25T10:13:43.264Z,102561.36
2019-02-25T10:16:10.718Z,102563.48
2019-02-25T10:18:38.152Z,102565.97
2019-02-25T10:21:05.644Z,102569.70
2019-02-25T10:23:33.028Z,102567.59
2019-02-25T10:26:00.505Z,102577.72
2019-02-25T10:28:28.418Z,102568.77
2019-02-25T10:30:55.844Z,102570.17
2019-02-25T10:33:23.302Z,102573.61
2019-02-25T10:35:51.186Z,102576.20
2019-02-25T10:38:19.565Z,102579.52
2019-02-25T10:40:49.592Z,102556.84
2019-02-25T10:43:17.311Z,102555.44
2019-02-25T10:45:45.402Z,102555.99
2019-02-25T10:48:13.078Z,102560.39
2019-02-25T10:50:40.928Z,102546.27
2019-02-25T10:53:10.979Z,102559.22
2019-02-25T10:55:44.945Z,102558.38
2019-02-25T10:58:12.623Z,102560.41
2019-02-25T11:00:43.783Z,102555.36
2019-02-25T11:03:13.478Z,102550.69
2019-02-25T11:05:42.611Z,102553.58
2019-02-25T11:08:13.897Z,102559.11
2019-02-25T11:10:49.062Z,102546.81
2019-02-25T11:13:17.556Z,102546.52
2019-02-25T11:15:46.672Z,102542.22
2019-02-25T11:18:14.643Z,102528.25
2019-02-25T11:20:42.108Z,102518.78
2019-02-25T11:23:10.518Z,102510.55
2019-02-25T11:25:39.073Z,102497.67
2019-02-25T11:28:07.602Z,102489.45
2019-02-25T11:30:35.966Z,102486.46
2019-02-25T11:33:03.594Z,102479.28
2019-02-25T11:35:34.158Z,102478.86
2019-02-25T11:38:01.958Z,102468.21
2019-02-25T11:40:31.269Z,102468.72
2019-02-25T11:42:58.968Z,102463.27
2019-02-25T11:45:26.408Z,102455.73
2019-02-25T11:47:54.198Z,102448.78
2019-02-25T11:50:21.648Z,102443.84
2019-02-25T11:52:49.660Z,102444.13
2019-02-25T11:55:17.084Z,102433.72
2019-02-25T11:57:44.732Z,102424.00
2019-02-25T12:00:15.251Z,102417.22
2019-02-25T12:02:43.331Z,102398.81
2019-02-25T12:05:11.261Z,102402.40
2019-02-25T12:07:38.732Z,102398.01
2019-02-25T12:10:06.919Z,102369.98
2019-02-25T12:12:34.487Z,102367.20
2019-02-25T12:15:01.985Z,102355.52
2019-02-25T12:17:29.451Z,102355.14
2019-02-25T12:19:56.889Z,102356.10
2019-02-25T12:22:24.478Z,102355.70
2019-02-25T12:24:51.883Z,102350.23
2019-02-25T12:27:19.432Z,102357.19
2019-02-25T12:29:47.013Z,102350.16
2019-02-25T12:32:14.571Z,102352.13
2019-02-25T12:34:42.091Z,102346.83
2019-02-25T12:37:11.531Z,102347.19
2019-02-25T12:39:39.139Z,102351.88
2019-02-25T12:42:06.881Z,102340.53
2019-02-25T12:44:34.856Z,102340.86
2019-02-25T12:47:02.311Z,102348.92
2019-02-25T12:49:29.785Z,102351.88
2019-02-25T12:51:57.161Z,102356.08
2019-02-25T12:54:24.700Z,102364.52
2019-02-25T12:56:52.158Z,102370.48
2019-02-25T12:59:19.636Z,102369.14
2019-02-25T13:01:47.308Z,102369.45
2019-02-25T13:04:14.868Z,102373.38
2019-02-25T13:06:42.390Z,102370.66
2019-02-25T13:09:14.035Z,102373.31
2019-02-25T13:11:41.440Z,102376.41
2019-02-25T13:14:08.983Z,102367.17
2019-02-25T13:16:36.484Z,102368.55
2019-02-25T13:19:03.982Z,102357.19
2019-02-25T13:21:31.538Z,102358.20
2019-02-25T13:23:59.462Z,102364.34
2019-02-25T13:26:29.265Z,102355.33
2019-02-25T13:28:58.228Z,102344.67
2019-02-25T13:31:25.598Z,102340.56
2019-02-25T13:33:53.119Z,102334.33
2019-02-25T13:36:20.484Z,102330.30
2019-02-25T13:38:48.059Z,102332.80
2019-02-25T13:41:15.606Z,102338.20
2019-02-25T13:43:43.149Z,102338.59
2019-02-25T13:46:10.622Z,102339.80
2019-02-25T13:48:38.457Z,102339.89
2019-02-25T13:51:05.853Z,102348.50
2019-02-25T13:53:33.327Z,102339.40
2019-02-25T13:56:01.005Z,102354.02
2019-02-25T13:58:28.492Z,102344.84
2019-02-25T14:00:55.962Z,102341.17
2019-02-25T14:03:23.514Z,102334.02
2019-02-25T14:05:51.029Z,102335.39
2019-02-25T14:08:18.489Z,102334.95
2019-02-25T14:10:46.230Z,102335.27
2019-02-25T14:13:13.915Z,102325.13
2019-02-25T14:15:41.574Z,102324.40
2019-02-25T14:18:09.124Z,102334.38
2019-02-25T14:20:40.052Z,102340.25
2019-02-25T14:23:12.496Z,102332.88
2019-02-25T14:25:41.518Z,102326.52
2019-02-25T14:28:22.944Z,102332.58
2019-02-25T14:30:51.625Z,102338.36
2019-02-25T14:33:19.290Z,102344.37
2019-02-25T14:35:56.077Z,102337.95
2019-02-25T14:38:29.500Z,102342.55
2019-02-25T14:40:57.404Z,102339.06
2019-02-25T14:43:27.278Z,102326.74
2019-02-25T14:45:56.805Z,102324.17
2019-02-25T14:48:25.348Z,102327.57
2019-02-25T14:50:53.323Z,102322.09
2019-02-25T14:53:20.821Z,102325.91
2019-02-25T14:55:50.340Z,102328.51
2019-02-25T14:58:17.853Z,102336.37
2019-02-25T15:00:45.784Z,102332.48
2019-02-25T15:03:13.506Z,102338.36
2019-02-25T15:05:41.604Z,102348.03
2019-02-25T15:08:09.181Z,102350.78
2019-02-25T15:10:38.486Z,102350.03
2019-02-25T15:13:08.374Z,102351.57
2019-02-25T15:15:37.055Z,102352.70
2019-02-25T15:18:05.179Z,102359.85
2019-02-25T15:20:32.912Z,102353.76
2019-02-25T15:23:00.799Z,102360.88
2019-02-25T15:25:31.168Z,102359.29
2019-02-25T15:27:58.222Z,102353.55
2019-02-25T15:30:30.427Z,102354.66
2019-02-25T15:33:00.091Z,102353.94
2019-02-25T15:35:31.358Z,102354.33
2019-02-25T15:37:57.948Z,102351.61
2019-02-25T15:40:27.279Z,102354.69
2019-02-25T15:43:02.948Z,102357.45
2019-02-25T15:45:32.915Z,102364.41
2019-02-25T15:48:01.659Z,102363.12
2019-02-25T15:50:29.543Z,102357.84
2019-02-25T15:53:00.861Z,102368.58
2019-02-25T15:55:29.676Z,102360.84
2019-02-25T15:59:08.030Z,102357.50
2019-02-25T16:01:35.947Z,102359.95
2019-02-25T16:04:15.354Z,102362.92
2019-02-25T16:06:43.219Z,102362.42
2019-02-25T16:09:11.660Z,102359.25
2019-02-25T16:11:41.224Z,102357.70
2019-02-25T16:14:10.939Z,102362.80
2019-02-25T16:16:40.277Z,102363.78
2019-02-25T16:19:08.161Z,102364.09
2019-02-25T16:21:43.185Z,102361.29
2019-02-25T16:24:12.332Z,102366.58
2019-02-25T16:26:53.702Z,102362.16
2019-02-25T16:29:35.757Z,102359.15
2019-02-25T16:32:35.054Z,102360.29
2019-02-25T16:35:04.610Z,102352.37
2019-02-25T16:37:33.407Z,102357.61
2019-02-25T16:40:06.522Z,102358.55
2019-02-25T16:42:34.745Z,102356.84
2019-02-25T16:45:06.284Z,102363.90
2019-02-25T16:47:35.576Z,102359.37
2019-02-25T16:50:04.161Z,102362.16
2019-02-25T16:52:32.130Z,102360.44
2019-02-25T16:55:00.101Z,102374.70
2019-02-25T16:57:28.168Z,102381.33
2019-02-25T16:59:57.524Z,102376.21
2019-02-25T17:02:30.201Z,102378.87
2019-02-25T17:04:57.651Z,102381.97
2019-02-25T17:07:25.658Z,102381.61
2019-02-25T17:09:55.018Z,102381.19
2019-02-25T17:12:25.192Z,102379.44
2019-02-25T17:14:53.212Z,102384.11
2019-02-25T17:17:24.850Z,102385.77
2019-02-25T17:19:54.053Z,102392.20
2019-02-25T17:22:22.423Z,102398.73
2019-02-25T17:24:52.316Z,102405.83
2019-02-25T17:27:19.869Z,102413.04
2019-02-25T17:29:49.169Z,102404.52
2019-02-25T17:32:19.392Z,102404.73
2019-02-25T17:34:47.083Z,102409.52
2019-02-25T17:37:16.604Z,102404.88
2019-02-25T17:39:44.871Z,102409.13
2019-02-25T17:42:13.546Z,102417.38
2019-02-25T17:44:41.632Z,102414.73
2019-02-25T17:47:11.097Z,102421.97
2019-02-25T17:49:40.578Z,102423.67
2019-02-25T17:52:09.258Z,102426.04
2019-02-25T17:54:37.739Z,102422.43
2019-02-25T17:57:07.602Z,102423.97
2019-02-25T17:59:36.554Z,102408.97
2019-02-25T18:02:06.676Z,102412.95
2019-02-25T18:04:34.754Z,102414.13
2019-02-25T18:07:03.152Z,102419.92
2019-02-25T18:09:31.252Z,102419.38
2019-02-25T18:12:00.028Z,102419.44
2019-02-25T18:14:28.831Z,102417.17
2019-02-25T18:16:57.413Z,102410.57
2019-02-25T18:19:27.135Z,102408.56
2019-02-25T18:21:58.219Z,102404.55
2019-02-25T18:24:26.787Z,102410.23
2019-02-25T18:26:54.876Z,102407.69
2019-02-25T18:29:23.564Z,102398.71
2019-02-25T18:31:52.516Z,102408.09
2019-02-25T18:34:20.349Z,102410.70
2019-02-25T18:36:48.964Z,102405.16
2019-02-25T18:39:18.316Z,102408.48
2019-02-25T18:43:16.593Z,102407.17
2019-02-25T18:45:44.817Z,102408.53
2019-02-25T18:48:12.986Z,102405.30
2019-02-25T18:50:40.923Z,102411.12
2019-02-25T18:53:09.102Z,102412.59
2019-02-25T18:59:21.439Z,102410.34
2019-02-25T19:18:10.629Z,102431.52
2019-02-25T19:20:41.062Z,102435.58
2019-02-25T19:23:10.250Z,102435.69
2019-02-25T19:55:20.626Z,102416.19
2019-02-25T20:10:02.169Z,102391.59
2019-02-25T20:13:07.783Z,102383.50
2019-02-25T20:15:37.658Z,102383.95
2019-02-25T20:18:14.342Z,102379.84
2019-02-25T20:31:38.631Z,102371.02
2019-02-25T21:26:33.774Z,102378.03
2019-02-25T21:36:01.658Z,102397.34
2019-02-25T21:38:30.313Z,102400.03
2019-02-25T21:40:58.676Z,102392.71
2019-02-25T21:43:28.963Z,102401.14
2019-02-25T21:45:56.619Z,102401.16
2019-02-25T21:48:27.523Z,102391.03
2019-02-25T21:50:58.067Z,102400.23
2019-02-25T21:53:24.538Z,102391.64
2019-02-25T21:55:53.500Z,102396.95
2019-02-25T21:58:23.589Z,102401.23
2019-02-25T22:00:50.831Z,102398.93
2019-02-25T22:03:19.516Z,102403.69
2019-02-25T22:05:49.384Z,102410.20
2019-02-25T22:08:20.104Z,102410.52
2019-02-25T22:11:13.030Z,102406.30
2019-02-25T22:13:38.931Z,102401.50
2019-02-25T22:16:08.008Z,102401.48
2019-02-25T22:18:36.330Z,102392.12
2019-02-25T22:21:07.163Z,102382.17
2019-02-25T22:23:35.033Z,102386.92
2019-02-25T22:26:02.658Z,102390.32
2019-02-25T22:28:30.582Z,102394.23
2019-02-25T22:30:59.559Z,102396.37
2019-02-25T22:33:28.047Z,102394.45
2019-02-25T22:35:56.496Z,102394.59
2019-02-25T22:38:23.896Z,102390.48
2019-02-25T22:40:53.157Z,102394.98
2019-02-25T22:43:20.875Z,102389.58
2019-02-25T22:45:48.428Z,102391.73
2019-02-25T22:48:16.383Z,102387.15
2019-02-25T22:50:45.141Z,102386.31
2019-02-25T22:53:12.643Z,102383.11
2019-02-25T22:55:42.678Z,102377.51
2019-02-25T22:58:10.926Z,102369.47
2019-02-25T23:00:43.517Z,102364.19
2019-02-25T23:03:15.219Z,102368.05
2019-02-25T23:05:43.049Z,102364.36
2019-02-25T23:08:12.760Z,102361.53
2019-02-25T23:10:42.010Z,102367.48
2019-02-25T23:13:09.281Z,102368.60
2019-02-25T23:15:36.803Z,102371.37
2019-02-25T23:18:05.590Z,102366.34
2019-02-25T23:20:34.043Z,102363.45
2019-02-25T23:23:06.118Z,102363.78
2019-02-25T23:25:31.056Z,102366.58
2019-02-25T23:28:00.220Z,102363.84
2019-02-25T23:30:27.838Z,102359.22
2019-02-25T23:32:55.272Z,102350.52
2019-02-25T23:35:23.494Z,102353.09
2019-02-25T23:37:54.408Z,102350.82
2019-02-25T23:40:21.298Z,102356.55
2019-02-25T23:42:49.189Z,102354.98
2019-02-25T23:45:18.386Z,102350.17
2019-02-25T23:47:46.100Z,102352.85
2019-02-25T23:50:13.846Z,102348.52
2019-02-25T23:52:41.332Z,102347.45
2019-02-25T23:55:12.234Z,102341.79
2019-02-25T23:57:38.433Z,102340.56
